createdAt,value
2023-03-27T00:00:29.624Z,47.09
2023-03-27T00:05:32.422Z,47.09
2023-03-27T00:10:36.939Z,47.31
2023-03-27T00:15:40.343Z,47.10
2023-03-27T00:20:44.330Z,47.40
2023-03-27T00:25:50.389Z,47.76
2023-03-27T00:30:53.390Z,47.57
2023-03-27T00:35:56.427Z,47.68
2023-03-27T00:41:00.824Z,47.83
2023-03-27T00:46:05.825Z,48.04
2023-03-27T00:51:09.115Z,48.11
2023-03-27T00:56:13.323Z,48.33
2023-03-27T01:01:17.358Z,48.61
2023-03-27T01:06:20.284Z,48.53
2023-03-27T01:11:30.970Z,48.78
2023-03-27T01:16:37.154Z,48.62
2023-03-27T01:22:02.524Z,49.04
2023-03-27T01:27:11.358Z,49.04
2023-03-27T01:32:59.766Z,49.28
2023-03-27T01:38:16.914Z,49.20
2023-03-27T01:43:23.605Z,49.44
2023-03-27T01:48:27.668Z,49.57
2023-03-27T01:53:31.573Z,49.43
2023-03-27T01:58:37.478Z,49.67
2023-03-27T02:03:41.585Z,49.76
2023-03-27T02:08:46.773Z,50.03
2023-03-27T02:14:01.404Z,50.12
2023-03-27T02:19:08.236Z,50.11
2023-03-27T02:24:11.099Z,50.44
2023-03-27T02:29:34.356Z,50.29
2023-03-27T02:34:56.494Z,50.19
2023-03-27T02:40:01.617Z,50.18
2023-03-27T02:45:10.205Z,50.61
2023-03-27T02:50:15.693Z,50.61
2023-03-27T02:55:20.134Z,50.62
2023-03-27T03:00:25.763Z,50.41
2023-03-27T03:05:41.127Z,50.73
2023-03-27T03:10:45.161Z,50.72
2023-03-27T03:15:50.688Z,50.80
2023-03-27T03:20:55.081Z,50.77
2023-03-27T03:25:58.213Z,51.16
2023-03-27T03:31:10.914Z,51.14
2023-03-27T03:36:14.977Z,50.63
2023-03-27T03:41:18.769Z,50.63
2023-03-27T03:46:23.700Z,50.50
2023-03-27T03:51:26.981Z,50.24
2023-03-27T03:56:30.892Z,50.29
2023-03-27T04:01:35.138Z,50.15
2023-03-27T04:06:40.440Z,50.30
2023-03-27T04:11:43.452Z,50.40
2023-03-27T04:17:27.216Z,50.38
2023-03-27T04:22:31.581Z,50.12
2023-03-27T04:27:35.623Z,49.93
2023-03-27T04:33:00.202Z,49.82
2023-03-27T04:38:15.329Z,50.16
2023-03-27T04:43:21.793Z,49.90
2023-03-27T04:48:27.410Z,49.97
2023-03-27T04:53:32.300Z,49.97
2023-03-27T04:58:37.650Z,49.78
2023-03-27T05:03:49.054Z,49.77
2023-03-27T05:09:00.441Z,49.82
2023-03-27T05:14:07.300Z,50.10
2023-03-27T05:19:13.772Z,49.77
2023-03-27T05:24:20.921Z,49.77
2023-03-27T05:29:25.863Z,49.88
2023-03-27T05:34:38.905Z,50.23
2023-03-27T05:39:46.729Z,49.75
2023-03-27T05:44:49.699Z,49.82
2023-03-27T05:49:54.097Z,49.84
2023-03-27T05:54:57.666Z,49.59
2023-03-27T06:00:01.229Z,49.58
2023-03-27T06:05:13.278Z,49.55
2023-03-27T06:10:20.420Z,49.72
2023-03-27T06:15:28.895Z,49.09
2023-03-27T06:20:51.952Z,49.29
2023-03-27T06:25:55.863Z,49.24
2023-03-27T06:31:00.507Z,49.14
2023-03-27T06:36:18.059Z,48.54
2023-03-27T06:41:23.381Z,47.99
2023-03-27T06:46:49.068Z,47.68
2023-03-27T06:52:01.607Z,47.70
2023-03-27T06:57:06.360Z,47.96
2023-03-27T07:02:23.252Z,48.14
2023-03-27T07:08:11.388Z,47.73
2023-03-27T07:13:24.883Z,47.80
2023-03-27T07:18:27.946Z,47.77
2023-03-27T07:23:33.024Z,47.84
2023-03-27T07:28:45.162Z,47.74
2023-03-27T07:33:48.762Z,47.75
2023-03-27T07:38:53.576Z,47.76
2023-03-27T07:44:00.540Z,47.63
2023-03-27T07:49:11.135Z,47.71
2023-03-27T07:54:16.976Z,48.12
2023-03-27T07:59:24.866Z,47.76
2023-03-27T08:04:29.310Z,48.18
2023-03-27T08:09:40.850Z,47.87
2023-03-27T08:14:46.970Z,47.86
2023-03-27T08:20:00.196Z,47.87
2023-03-27T08:25:05.088Z,48.03
2023-03-27T08:30:10.459Z,47.85
2023-03-27T08:35:16.107Z,47.75
2023-03-27T08:40:25.488Z,47.80
2023-03-27T08:45:42.085Z,47.45
2023-03-27T08:50:46.978Z,46.89
2023-03-27T08:55:54.338Z,46.86
2023-03-27T09:01:15.457Z,45.41
2023-03-27T09:06:25.731Z,38.30
2023-03-27T09:11:38.415Z,32.03
2023-03-27T09:16:48.743Z,31.34
2023-03-27T09:22:05.662Z,30.55
2023-03-27T09:27:27.599Z,30.78
2023-03-27T09:32:37.331Z,30.07
2023-03-27T09:37:40.555Z,30.33
2023-03-27T09:42:45.077Z,30.02
2023-03-27T09:47:55.147Z,30.87
2023-03-27T09:53:09.946Z,29.89
2023-03-27T09:58:29.770Z,29.62
2023-03-27T10:03:37.642Z,31.14
2023-03-27T10:08:42.191Z,34.91
2023-03-27T10:13:52.872Z,34.53
2023-03-27T10:18:59.575Z,35.08
2023-03-27T10:24:05.677Z,35.89
2023-03-27T10:29:30.192Z,36.78
2023-03-27T10:34:37.866Z,37.79
2023-03-27T10:40:09.258Z,38.83
2023-03-27T10:45:21.668Z,39.11
2023-03-27T10:50:32.168Z,39.77
2023-03-27T10:55:44.820Z,40.27
2023-03-27T11:00:53.286Z,41.03
2023-03-27T11:05:56.830Z,41.37
2023-03-27T11:11:09.511Z,41.29
2023-03-27T11:16:21.896Z,41.53
2023-03-27T11:21:45.103Z,41.55
2023-03-27T11:26:57.215Z,41.59
2023-03-27T11:32:06.037Z,41.68
2023-03-27T11:37:20.137Z,41.54
2023-03-27T11:42:24.883Z,41.60
2023-03-27T11:47:47.783Z,41.38
2023-03-27T11:52:59.241Z,41.45
2023-03-27T11:58:27.128Z,41.51
2023-03-27T12:04:00.228Z,30.64
2023-03-27T12:09:36.624Z,30.46
2023-03-27T12:15:03.061Z,35.96
2023-03-27T12:20:17.525Z,36.25
2023-03-27T12:25:35.994Z,36.88
2023-03-27T12:31:04.537Z,38.32
2023-03-27T12:36:11.310Z,39.20
2023-03-27T12:41:21.788Z,39.90
2023-03-27T12:47:08.431Z,40.63
2023-03-27T12:52:15.153Z,41.61
2023-03-27T12:57:25.129Z,41.97
2023-03-27T13:02:48.855Z,41.69
2023-03-27T13:07:56.939Z,41.00
2023-03-27T13:13:32.467Z,41.46
2023-03-27T13:18:50.305Z,41.83
2023-03-27T13:24:07.542Z,41.83
2023-03-27T13:29:16.367Z,41.91
2023-03-27T13:34:29.694Z,42.76
2023-03-27T13:39:42.716Z,43.13
2023-03-27T13:44:54.894Z,43.22
2023-03-27T13:50:14.512Z,43.11
2023-03-27T13:55:36.660Z,42.83
2023-03-27T14:01:22.639Z,42.06
2023-03-27T14:06:47.404Z,42.49
2023-03-27T14:12:03.596Z,42.72
2023-03-27T14:17:37.944Z,43.11
2023-03-27T14:22:44.035Z,43.10
2023-03-27T14:27:51.793Z,39.08
2023-03-27T14:32:55.632Z,31.52
2023-03-27T14:38:01.125Z,34.65
2023-03-27T14:43:15.887Z,35.79
2023-03-27T14:48:22.086Z,36.78
2023-03-27T14:53:27.541Z,37.21
2023-03-27T14:58:46.560Z,37.31
2023-03-27T15:03:51.633Z,37.71
2023-03-27T15:08:58.749Z,38.25
2023-03-27T15:14:29.350Z,38.58
2023-03-27T15:19:34.942Z,37.58
2023-03-27T15:24:39.931Z,37.07
2023-03-27T15:29:44.981Z,33.50
2023-03-27T15:34:49.052Z,34.99
2023-03-27T15:40:28.469Z,35.63
2023-03-27T15:45:43.341Z,35.30
2023-03-27T15:50:56.447Z,35.34
2023-03-27T15:55:59.602Z,35.98
2023-03-27T16:01:18.388Z,36.65
2023-03-27T16:06:28.018Z,37.11
2023-03-27T16:11:41.826Z,37.43
2023-03-27T16:16:46.219Z,38.79
2023-03-27T16:21:55.451Z,31.79
2023-03-27T16:26:58.419Z,37.96
2023-03-27T16:32:02.698Z,38.27
2023-03-27T16:37:05.535Z,37.47
2023-03-27T16:42:11.700Z,36.99
2023-03-27T16:47:16.530Z,37.34
2023-03-27T16:52:19.282Z,37.51
2023-03-27T16:57:22.116Z,37.60
2023-03-27T17:02:26.618Z,37.79
2023-03-27T17:07:29.552Z,38.32
2023-03-27T17:12:32.497Z,38.82
2023-03-27T17:17:36.889Z,38.50
2023-03-27T17:22:39.703Z,38.77
2023-03-27T17:27:42.465Z,38.51
2023-03-27T17:32:46.825Z,38.82
2023-03-27T17:37:49.714Z,39.02
2023-03-27T17:42:52.657Z,39.51
2023-03-27T17:47:57.048Z,40.29
2023-03-27T17:53:00.166Z,40.37
2023-03-27T17:58:09.438Z,39.96
2023-03-27T18:03:14.400Z,39.68
2023-03-27T18:08:17.709Z,40.11
2023-03-27T18:13:20.535Z,40.17
2023-03-27T18:18:26.476Z,40.34
2023-03-27T18:23:29.237Z,40.74
2023-03-27T18:28:32.047Z,40.57
2023-03-27T18:33:36.155Z,40.39
2023-03-27T18:38:39.097Z,40.74
2023-03-27T18:43:41.946Z,40.85
2023-03-27T18:48:46.316Z,40.66
2023-03-27T18:53:50.688Z,40.66
2023-03-27T18:58:53.472Z,40.79
2023-03-27T19:03:58.344Z,40.71
2023-03-27T19:09:01.281Z,40.69
2023-03-27T19:14:04.092Z,40.77
2023-03-27T19:19:34.830Z,40.96
2023-03-27T19:24:57.715Z,40.97
2023-03-27T19:30:00.477Z,41.01
2023-03-27T19:35:05.215Z,40.89
2023-03-27T19:40:10.054Z,40.83
2023-03-27T19:45:13.135Z,41.04
2023-03-27T19:50:17.405Z,41.28
2023-03-27T19:55:27.564Z,41.13
2023-03-27T20:00:32.047Z,41.31
2023-03-27T20:05:38.034Z,41.27
2023-03-27T20:10:41.046Z,41.38
2023-03-27T20:15:47.328Z,41.40
2023-03-27T20:20:51.666Z,41.19
2023-03-27T20:25:55.803Z,40.86
2023-03-27T20:31:03.678Z,41.16
2023-03-27T20:36:08.388Z,41.18
2023-03-27T20:41:15.717Z,40.97
2023-03-27T20:46:18.770Z,40.75
2023-03-27T20:51:24.098Z,40.74
2023-03-27T20:56:27.369Z,40.73
2023-03-27T21:01:30.196Z,40.64
2023-03-27T21:06:34.396Z,40.44
2023-03-27T21:11:37.201Z,40.37
2023-03-27T21:16:40.178Z,40.22
2023-03-27T21:21:44.583Z,40.34
2023-03-27T21:26:47.347Z,40.24
2023-03-27T21:31:50.426Z,40.17
2023-03-27T21:36:54.707Z,40.24
2023-03-27T21:41:57.610Z,40.28
2023-03-27T21:47:00.382Z,40.54
2023-03-27T21:52:04.526Z,40.44
2023-03-27T21:57:07.370Z,40.67
2023-03-27T22:02:10.752Z,40.83
2023-03-27T22:07:14.853Z,40.55
2023-03-27T22:12:17.729Z,40.69
2023-03-27T22:17:20.510Z,40.65
2023-03-27T22:22:24.774Z,40.34
2023-03-27T22:27:27.527Z,40.57
2023-03-27T22:32:30.274Z,40.71
2023-03-27T22:37:35.998Z,41.20
2023-03-27T22:42:38.859Z,41.74
2023-03-27T22:47:41.734Z,42.04
2023-03-27T22:52:45.878Z,42.45
2023-03-27T22:57:48.669Z,42.95
2023-03-27T23:02:51.839Z,43.01
2023-03-27T23:07:56.133Z,43.25
2023-03-27T23:12:58.934Z,43.31
2023-03-27T23:18:01.753Z,43.98
2023-03-27T23:23:05.874Z,43.82
2023-03-27T23:28:08.661Z,43.99
2023-03-27T23:33:12.352Z,44.27
2023-03-27T23:38:16.494Z,44.74
2023-03-27T23:43:19.405Z,44.37
2023-03-27T23:48:22.184Z,44.76
2023-03-27T23:53:27.021Z,44.87
2023-03-27T23:58:32.314Z,44.97
